createdAt,value
2019-02-12T00:01:11.540Z,-1.80
2019-02-12T00:03:44.179Z,0.70
2019-02-12T00:08:49.391Z,0.60
2019-02-12T00:11:18.974Z,0.60
2019-02-12T00:16:19.130Z,0.60
2019-02-12T00:23:55.530Z,0.70
2019-02-12T00:26:25.290Z,0.70
2019-02-12T00:34:02.202Z,0.60
2019-02-12T00:39:06.748Z,-0.40
2019-02-12T00:44:11.398Z,0.50
2019-02-12T00:46:41.241Z,0.50
2019-02-12T00:51:42.797Z,0.50
2019-02-12T00:54:15.142Z,0.50
2019-02-12T00:56:44.883Z,0.50
2019-02-12T00:59:17.635Z,0.50
2019-02-12T01:01:47.822Z,0.50
2019-02-12T01:04:19.743Z,0.60
2019-02-12T01:14:25.310Z,0.60
2019-02-12T01:19:29.702Z,0.60
2019-02-12T01:21:59.358Z,0.60
2019-02-12T01:24:30.110Z,1.40
2019-02-12T01:26:59.738Z,0.50
2019-02-12T01:29:32.834Z,0.50
2019-02-12T01:32:02.526Z,0.40
2019-02-12T01:34:35.674Z,0.40
2019-02-12T01:37:05.722Z,0.40
2019-02-12T01:39:38.334Z,0.40
2019-02-12T01:44:40.761Z,0.40
2019-02-12T01:47:10.393Z,0.40
2019-02-12T01:49:46.048Z,0.40
2019-02-12T01:52:15.934Z,0.50
2019-02-12T01:54:46.845Z,1.60
2019-02-12T01:57:16.430Z,0.50
2019-02-12T01:59:48.918Z,0.50
2019-02-12T02:02:18.529Z,0.40
2019-02-12T02:07:21.961Z,0.50
2019-02-12T02:09:54.406Z,0.50
2019-02-12T02:12:24.034Z,0.50
2019-02-12T02:14:57.519Z,0.50
2019-02-12T02:17:27.394Z,0.50
2019-02-12T02:20:03.285Z,0.50
2019-02-12T02:22:32.921Z,0.50
2019-02-12T02:27:31.545Z,0.50
2019-02-12T02:40:15.209Z,0.60
2019-02-12T02:42:45.052Z,0.50
2019-02-12T02:47:45.373Z,0.50
2019-02-12T02:52:47.594Z,0.50
2019-02-12T02:57:49.271Z,0.50
2019-02-12T03:00:23.891Z,0.50
2019-02-12T03:05:25.603Z,0.50
2019-02-12T03:10:28.467Z,0.40
2019-02-12T03:15:31.136Z,0.30
2019-02-12T03:18:01.004Z,0.30
2019-02-12T03:20:34.826Z,0.30
2019-02-12T03:23:04.500Z,0.30
2019-02-12T03:25:36.842Z,0.80
2019-02-12T03:30:40.128Z,0.30
2019-02-12T03:33:09.944Z,0.30
2019-02-12T03:35:41.873Z,0.30
2019-02-12T03:38:11.478Z,0.30
2019-02-12T03:43:13.046Z,0.50
2019-02-12T03:45:46.823Z,0.60
2019-02-12T03:48:16.675Z,0.60
2019-02-12T03:50:50.115Z,0.60
2019-02-12T03:55:52.591Z,0.60
2019-02-12T03:58:22.193Z,0.70
2019-02-12T04:03:24.242Z,0.70
2019-02-12T04:05:57.556Z,0.70
2019-02-12T04:08:27.130Z,0.70
2019-02-12T04:11:00.928Z,0.70
2019-02-12T04:13:30.536Z,0.70
2019-02-12T04:18:33.312Z,0.60
2019-02-12T04:21:06.983Z,0.60
2019-02-12T04:23:37.783Z,0.50
2019-02-12T04:26:13.490Z,0.50
2019-02-12T04:28:43.080Z,0.50
2019-02-12T04:31:15.781Z,0.50
2019-02-12T04:33:45.358Z,0.70
2019-02-12T04:38:47.181Z,0.50
2019-02-12T04:41:19.547Z,0.50
2019-02-12T04:43:49.141Z,0.50
2019-02-12T04:46:20.681Z,0.50
2019-02-12T04:48:50.545Z,0.50
2019-02-12T04:51:24.441Z,0.50
2019-02-12T04:53:54.017Z,0.40
2019-02-12T04:56:28.902Z,0.40
2019-02-12T04:58:58.543Z,0.30
2019-02-12T05:04:00.172Z,0.40
2019-02-12T05:06:31.231Z,0.90
2019-02-12T05:09:32.565Z,0.30
2019-02-12T05:24:40.125Z,0.40
2019-02-12T05:27:09.719Z,0.40
2019-02-12T05:29:43.906Z,0.50
2019-02-12T05:32:13.507Z,0.50
2019-02-12T05:34:45.674Z,0.50
2019-02-12T05:37:15.307Z,0.50
2019-02-12T05:39:50.947Z,0.50
2019-02-12T05:42:20.917Z,0.50
2019-02-12T05:44:52.070Z,0.70
2019-02-12T05:49:54.854Z,0.50
2019-02-12T05:52:24.427Z,0.50
2019-02-12T05:54:59.191Z,0.40
2019-02-12T05:57:28.794Z,0.40
2019-02-12T06:00:01.359Z,0.40
2019-02-12T06:05:06.019Z,0.40
2019-02-12T06:07:36.962Z,0.50
2019-02-12T06:10:07.557Z,-0.10
2019-02-12T06:12:38.250Z,0.40
2019-02-12T06:17:40.454Z,0.40
2019-02-12T06:20:17.115Z,0.50
2019-02-12T06:22:46.722Z,0.40
2019-02-12T06:27:45.522Z,0.40
2019-02-12T06:30:19.257Z,0.40
2019-02-12T06:32:50.108Z,0.40
2019-02-12T06:35:22.835Z,0.40
2019-02-12T06:37:52.445Z,0.50
2019-02-12T06:40:26.054Z,0.50
2019-02-12T06:42:55.998Z,0.50
2019-02-12T06:45:28.410Z,1.00
2019-02-12T06:47:58.076Z,0.50
2019-02-12T06:55:59.752Z,0.60
2019-02-12T06:58:33.693Z,0.60
2019-02-12T07:01:03.316Z,0.60
2019-02-12T07:03:54.529Z,0.70
2019-02-12T07:06:52.638Z,0.70
2019-02-12T07:09:29.767Z,1.60
2019-02-12T07:12:41.122Z,1.80
2019-02-12T07:15:33.713Z,0.80
2019-02-12T07:18:43.310Z,0.80
2019-02-12T07:21:56.053Z,0.90
2019-02-12T07:27:59.682Z,0.20
2019-02-12T07:44:24.517Z,1.20
2019-02-12T07:47:23.419Z,1.30
2019-02-12T07:50:21.911Z,1.30
2019-02-12T07:53:36.442Z,1.40
2019-02-12T07:56:51.331Z,1.40
2019-02-12T08:02:52.571Z,1.50
2019-02-12T08:06:18.513Z,1.50
2019-02-12T08:12:16.193Z,1.50
2019-02-12T08:18:10.538Z,1.60
2019-02-12T08:21:03.462Z,1.70
2019-02-12T08:24:02.619Z,1.90
2019-02-12T08:27:09.705Z,2.00
2019-02-12T08:30:13.138Z,2.10
2019-02-12T08:33:25.868Z,2.40
2019-02-12T08:39:07.778Z,3.00
2019-02-12T08:42:18.483Z,2.30
2019-02-12T08:48:01.878Z,2.80
2019-02-12T08:51:11.166Z,2.90
2019-02-12T08:57:08.176Z,2.90
2019-02-12T09:00:03.611Z,2.90
2019-02-12T09:03:05.133Z,2.90
2019-02-12T09:08:48.730Z,3.10
2019-02-12T09:12:15.890Z,3.20
2019-02-12T09:15:25.583Z,3.20
2019-02-12T09:18:52.469Z,2.50
2019-02-12T09:21:56.533Z,3.10
2019-02-12T09:25:01.516Z,3.10
2019-02-12T09:28:06.840Z,3.10
2019-02-12T09:31:22.901Z,3.20
2019-02-12T09:34:33.662Z,3.20
2019-02-12T09:37:28.860Z,3.90
2019-02-12T09:40:54.594Z,3.30
2019-02-12T09:43:57.777Z,3.30
2019-02-12T09:49:39.029Z,4.60
2019-02-12T09:52:48.198Z,2.60
2019-02-12T09:55:31.059Z,3.50
2019-02-12T09:58:38.823Z,3.60
2019-02-12T10:01:17.757Z,3.70
2019-02-12T10:04:27.530Z,3.70
2019-02-12T10:07:34.381Z,3.20
2019-02-12T10:10:30.515Z,3.90
2019-02-12T10:13:44.277Z,3.90
2019-02-12T10:17:04.027Z,4.00
2019-02-12T10:23:27.732Z,4.10
2019-02-12T10:29:16.589Z,4.30
2019-02-12T10:31:45.247Z,4.30
2019-02-12T10:34:14.869Z,4.30
2019-02-12T10:36:58.430Z,4.40
2019-02-12T10:41:57.261Z,4.40
2019-02-12T10:44:26.902Z,4.40
2019-02-12T10:46:56.836Z,4.40
2019-02-12T10:49:26.442Z,4.50
2019-02-12T10:54:27.756Z,4.50
2019-02-12T10:56:51.577Z,4.50
2019-02-12T11:01:52.946Z,4.60
2019-02-12T11:04:22.528Z,4.60
2019-02-12T11:06:58.059Z,4.70
2019-02-12T11:11:59.942Z,4.80
2019-02-12T11:14:31.909Z,4.80
2019-02-12T11:17:04.858Z,4.80
2019-02-12T11:24:43.209Z,4.90
2019-02-12T11:27:12.808Z,4.80
2019-02-12T11:29:42.691Z,5.00
2019-02-12T11:32:12.432Z,5.10
2019-02-12T11:34:42.042Z,5.00
2019-02-12T11:37:14.906Z,4.90
2019-02-12T11:39:47.068Z,4.80
2019-02-12T11:42:16.741Z,4.90
2019-02-12T11:44:46.331Z,5.00
2019-02-12T11:47:18.954Z,5.00
2019-02-12T11:49:48.819Z,5.00
2019-02-12T11:52:21.337Z,5.00
2019-02-12T11:54:50.960Z,5.10
2019-02-12T11:57:24.966Z,4.80
2019-02-12T11:59:55.810Z,4.10
2019-02-12T12:02:33.165Z,5.30
2019-02-12T12:05:02.919Z,5.40
2019-02-12T12:07:32.519Z,6.00
2019-02-12T12:10:02.678Z,5.40
2019-02-12T12:12:32.320Z,5.60
2019-02-12T12:15:01.908Z,5.50
2019-02-12T12:17:34.912Z,5.50
2019-02-12T12:20:05.006Z,5.60
2019-02-12T12:22:45.209Z,5.70
2019-02-12T12:25:15.140Z,5.80
2019-02-12T12:30:20.246Z,6.00
2019-02-12T12:32:50.420Z,5.90
2019-02-12T12:37:49.192Z,6.10
2019-02-12T12:40:20.562Z,6.90
2019-02-12T12:42:50.243Z,6.10
2019-02-12T12:48:01.732Z,6.00
2019-02-12T12:50:31.346Z,6.00
2019-02-12T12:53:03.018Z,5.40
2019-02-12T12:58:01.877Z,5.90
2019-02-12T13:00:31.467Z,5.90
2019-02-12T13:03:01.878Z,6.80
2019-02-12T13:05:31.908Z,6.20
2019-02-12T13:08:06.506Z,6.20
2019-02-12T13:10:37.070Z,6.20
2019-02-12T13:13:07.167Z,6.30
2019-02-12T13:15:36.779Z,6.40
2019-02-12T13:20:41.185Z,6.70
2019-02-12T13:23:14.207Z,6.70
2019-02-12T13:25:45.583Z,6.70
2019-02-12T13:28:17.338Z,6.10
2019-02-12T13:30:47.013Z,6.50
2019-02-12T13:33:19.439Z,6.50
2019-02-12T13:35:49.059Z,6.50
2019-02-12T13:38:21.762Z,6.60
2019-02-12T13:40:53.690Z,6.70
2019-02-12T13:43:24.824Z,6.70
2019-02-12T13:46:00.026Z,6.60
2019-02-12T13:48:29.650Z,7.80
2019-02-12T13:53:32.475Z,6.70
2019-02-12T13:56:02.160Z,6.70
2019-02-12T13:58:31.770Z,6.70
2019-02-12T14:01:01.682Z,6.70
2019-02-12T14:03:34.530Z,6.60
2019-02-12T14:06:04.251Z,6.60
2019-02-12T14:11:07.131Z,6.60
2019-02-12T14:13:42.928Z,6.50
2019-02-12T14:16:12.542Z,6.70
2019-02-12T14:18:43.809Z,7.80
2019-02-12T14:23:47.159Z,6.90
2019-02-12T14:26:16.802Z,6.90
2019-02-12T14:31:22.805Z,6.90
2019-02-12T14:38:56.779Z,7.40
2019-02-12T14:43:59.907Z,7.50
2019-02-12T14:46:29.802Z,6.60
2019-02-12T14:54:04.403Z,7.10
2019-02-12T14:56:34.366Z,7.00
2019-02-12T14:59:09.394Z,6.50
2019-02-12T15:01:41.369Z,6.60
2019-02-12T15:06:41.782Z,6.70
2019-02-12T15:09:14.219Z,6.70
2019-02-12T15:11:43.811Z,6.70
2019-02-12T15:14:17.319Z,6.80
2019-02-12T15:16:50.663Z,6.70
2019-02-12T15:19:20.362Z,6.70
2019-02-12T15:21:50.129Z,7.50
2019-02-12T15:24:22.387Z,6.60
2019-02-12T15:26:52.542Z,6.60
2019-02-12T15:31:51.970Z,6.50
2019-02-12T15:39:28.792Z,6.40
2019-02-12T15:42:00.391Z,6.40
2019-02-12T15:44:32.090Z,6.40
2019-02-12T15:49:38.753Z,5.00
2019-02-12T15:57:15.666Z,6.10
2019-02-12T15:59:45.338Z,6.10
2019-02-12T16:04:48.230Z,5.80
2019-02-12T16:07:20.409Z,6.00
2019-02-12T16:09:52.562Z,6.00
2019-02-12T16:12:26.482Z,6.00
2019-02-12T16:17:27.483Z,5.80
2019-02-12T16:19:57.398Z,5.80
2019-02-12T16:22:26.994Z,5.20
2019-02-12T16:27:26.856Z,5.50
2019-02-12T16:29:59.003Z,5.50
2019-02-12T16:35:02.848Z,5.40
2019-02-12T16:37:32.436Z,5.40
2019-02-12T16:45:14.033Z,4.70
2019-02-12T16:47:43.939Z,5.20
2019-02-12T16:50:13.684Z,5.10
2019-02-12T16:52:43.275Z,5.10
2019-02-12T16:55:14.868Z,5.10
2019-02-12T17:00:19.562Z,5.00
2019-02-12T17:02:49.181Z,5.00
2019-02-12T17:05:26.341Z,4.90
2019-02-12T17:15:25.188Z,4.90
2019-02-12T17:20:27.230Z,4.70
2019-02-12T17:22:57.111Z,4.70
2019-02-12T17:25:30.267Z,4.70
2019-02-12T17:28:00.199Z,4.70
2019-02-12T17:30:32.865Z,4.60
2019-02-12T17:33:02.477Z,4.60
2019-02-12T17:35:38.421Z,4.60
2019-02-12T17:40:42.375Z,4.80
2019-02-12T17:43:12.335Z,4.50
2019-02-12T17:45:41.980Z,5.40
2019-02-12T17:48:11.606Z,4.40
2019-02-12T17:53:12.171Z,4.20
2019-02-12T17:55:47.618Z,4.20
2019-02-12T17:58:17.509Z,4.10
2019-02-12T18:03:18.838Z,3.90
2019-02-12T18:05:56.763Z,3.90
2019-02-12T18:08:26.451Z,3.90
2019-02-12T18:10:56.354Z,3.90
2019-02-12T18:13:26.070Z,3.80
2019-02-12T18:15:58.943Z,3.80
2019-02-12T18:21:01.535Z,3.60
2019-02-12T18:23:31.134Z,3.60
2019-02-12T18:26:06.529Z,3.60
2019-02-12T18:31:09.246Z,3.50
2019-02-12T18:33:41.504Z,3.40
2019-02-12T18:36:14.137Z,3.50
2019-02-12T18:38:43.731Z,3.40
2019-02-12T18:41:16.539Z,3.40
2019-02-12T18:43:47.506Z,3.40
2019-02-12T18:46:18.326Z,3.50
2019-02-12T18:51:20.914Z,3.50
2019-02-12T18:53:50.538Z,3.50
2019-02-12T18:56:23.742Z,3.40
2019-02-12T18:58:53.675Z,3.40
2019-02-12T19:01:27.231Z,3.40
2019-02-12T19:06:31.364Z,3.70
2019-02-12T19:09:01.065Z,3.60
2019-02-12T19:11:31.002Z,3.60
2019-02-12T19:14:01.938Z,3.60
2019-02-12T19:16:34.639Z,3.50
2019-02-12T19:19:06.975Z,3.50
2019-02-12T19:21:37.642Z,3.50
2019-02-12T19:24:07.872Z,3.50
2019-02-12T19:26:49.545Z,3.50
2019-02-12T19:34:14.717Z,3.50
2019-02-12T19:36:45.960Z,3.50
2019-02-12T19:41:50.303Z,4.60
2019-02-12T19:44:22.595Z,3.40
2019-02-12T19:46:52.286Z,3.30
2019-02-12T19:51:54.708Z,3.50
2019-02-12T19:54:24.348Z,3.30
2019-02-12T19:57:00.359Z,3.30
2019-02-12T19:59:32.001Z,3.20
2019-02-12T20:02:03.128Z,3.20
2019-02-12T20:04:32.763Z,3.20
2019-02-12T20:09:31.693Z,3.10
2019-02-12T20:12:09.348Z,3.10
2019-02-12T20:14:41.293Z,3.00
2019-02-12T20:19:41.343Z,3.00
2019-02-12T20:22:13.143Z,2.90
2019-02-12T20:24:43.758Z,3.00
2019-02-12T20:27:17.902Z,2.90
2019-02-12T20:29:48.281Z,2.90
2019-02-12T20:32:19.743Z,2.90
2019-02-12T20:34:53.713Z,2.90
2019-02-12T20:37:24.591Z,2.90
2019-02-12T20:39:54.326Z,2.90
2019-02-12T20:42:23.967Z,2.80
2019-02-12T20:44:53.954Z,2.80
2019-02-12T20:47:26.499Z,3.80
2019-02-12T20:49:56.154Z,2.80
2019-02-12T20:52:28.157Z,2.80
2019-02-12T20:54:57.850Z,2.80
2019-02-12T20:57:31.702Z,2.80
2019-02-12T21:00:01.579Z,2.80
2019-02-12T21:02:41.545Z,3.30
2019-02-12T21:05:12.108Z,2.80
2019-02-12T21:10:18.204Z,2.70
2019-02-12T21:12:50.978Z,2.70
2019-02-12T21:15:21.414Z,2.70
2019-02-12T21:17:51.125Z,2.70
2019-02-12T21:20:21.158Z,2.60
2019-02-12T21:22:54.534Z,2.70
2019-02-12T21:25:24.594Z,2.80
2019-02-12T21:27:55.349Z,2.50
2019-02-12T21:30:27.894Z,2.70
2019-02-12T21:32:58.771Z,2.70
2019-02-12T21:37:57.777Z,2.70
2019-02-12T21:40:27.910Z,2.60
2019-02-12T21:42:57.635Z,2.50
2019-02-12T21:45:28.736Z,2.40
2019-02-12T21:48:01.232Z,2.30
2019-02-12T21:50:31.003Z,2.30
2019-02-12T21:53:00.971Z,2.30
2019-02-12T21:55:30.698Z,2.20
2019-02-12T21:58:00.477Z,2.20
2019-02-12T22:00:30.568Z,1.50
2019-02-12T22:03:03.449Z,2.10
2019-02-12T22:10:34.239Z,2.10
2019-02-12T22:13:04.031Z,2.20
2019-02-12T22:18:08.449Z,2.30
2019-02-12T22:20:40.711Z,2.20
2019-02-12T22:23:10.515Z,2.10
2019-02-12T22:30:44.250Z,2.80
2019-02-12T22:33:14.194Z,1.90
2019-02-12T22:35:49.433Z,1.90
2019-02-12T22:38:19.191Z,1.80
2019-02-12T22:43:24.899Z,1.70
2019-02-12T22:45:54.599Z,1.70
2019-02-12T22:48:26.772Z,1.70
2019-02-12T22:50:57.497Z,1.60
2019-02-12T22:53:28.843Z,1.50
2019-02-12T22:56:00.267Z,1.40
2019-02-12T22:58:30.232Z,1.40
2019-02-12T23:01:09.802Z,1.40
2019-02-12T23:03:39.883Z,1.50
2019-02-12T23:06:18.347Z,1.40
2019-02-12T23:08:48.349Z,1.50
2019-02-12T23:11:18.062Z,1.40
2019-02-12T23:13:47.796Z,1.50
2019-02-12T23:16:17.799Z,1.60
2019-02-12T23:18:47.532Z,1.80
2019-02-12T23:21:22.915Z,1.80
2019-02-12T23:23:52.918Z,3.00
2019-02-12T23:26:23.869Z,1.70
2019-02-12T23:28:55.359Z,1.60
2019-02-12T23:31:27.338Z,1.70
2019-02-12T23:34:01.256Z,1.80
2019-02-12T23:36:31.192Z,1.80
2019-02-12T23:39:00.915Z,1.70
2019-02-12T23:41:31.678Z,1.60
2019-02-12T23:44:01.382Z,1.50
2019-02-12T23:46:35.584Z,1.50
2019-02-12T23:49:05.542Z,1.40
2019-02-12T23:54:04.299Z,1.40
2019-02-12T23:56:34.322Z,1.40
2019-02-12T23:59:04.016Z,1.40
